In Rescue
 
Open Full Screen Window  High Contrast Mode
Wind Gusting 00 knots
05
May 25, 2022 9:16 PM CDT
Weather Information
Wind Direction
  040 °
Wind Speed
  05 kt (6 mph)
Wind Gust
  00 kt (0 mph)
Altimeter
29.91 in
Visibility
10 SM
Temperature
09° C
48° F
Dewpoint
07° C
45° F
Humidity
87%
1hr Rain Fall
00.00 in.
24hr Rain Fall
00.07 in.
Sky Condition
Overcast @ 3,400 ft
Broken @ 2,900 ft
Broken @ 1,900 ft
MVFR

METAR KPEX 260216Z AUTO 04005KT 10SM BKN019 BKN029 OVC034 09/07 A2991 RMK AO2

FAA Disclaimer: The data displayed is for advisory purposes only and is not to be used for flight planning or operations.